sensor_id;sensor_type;location;lat;lon;timestamp;pressure;altitude;pressure_sealevel;temperature;humidity
61908;BME280;47864;52.526;19.672;2023-06-10T00:01:39;154090.97;;;20.32;50.31
61908;BME280;47864;52.526;19.672;2023-06-10T00:03:41;154102.44;;;20.36;50.91
61908;BME280;47864;52.526;19.672;2023-06-10T00:05:43;154129.19;;;20.47;50.65
61908;BME280;47864;52.526;19.672;2023-06-10T00:07:44;154088.41;;;20.31;50.96
61908;BME280;47864;52.526;19.672;2023-06-10T00:09:46;154078.22;;;20.27;50.70
61908;BME280;47864;52.526;19.672;2023-06-10T00:11:47;154065.50;;;20.22;51.27
61908;BME280;47864;52.526;19.672;2023-06-10T00:13:49;154065.50;;;20.22;51.32
61908;BME280;47864;52.526;19.672;2023-06-10T00:15:50;154031.16;;;20.08;51.85
61908;BME280;47864;52.526;19.672;2023-06-10T00:17:52;154027.34;;;20.06;52.01
61908;BME280;47864;52.526;19.672;2023-06-10T00:19:54;154051.53;;;20.16;52.13
61908;BME280;47864;52.526;19.672;2023-06-10T00:21:56;154032.44;;;20.08;52.39
61908;BME280;47864;52.526;19.672;2023-06-10T00:23:58;154027.34;;;20.06;52.21
61908;BME280;47864;52.526;19.672;2023-06-10T00:26:00;154029.88;;;20.07;52.49
61908;BME280;47864;52.526;19.672;2023-06-10T00:28:01;154026.06;;;20.06;52.95
61908;BME280;47864;52.526;19.672;2023-06-10T00:30:04;154027.34;;;20.06;52.82
61908;BME280;47864;52.526;19.672;2023-06-10T00:32:06;153993.00;;;19.93;53.05
61908;BME280;47864;52.526;19.672;2023-06-10T00:34:08;154031.16;;;20.08;53.15
61908;BME280;47864;52.526;19.672;2023-06-10T00:36:09;154015.84;;;20.02;53.21
61908;BME280;47864;52.526;19.672;2023-06-10T00:38:13;154013.34;;;20.01;53.45
61908;BME280;47864;52.526;19.672;2023-06-10T00:40:15;154009.53;;;19.99;53.67
61908;BME280;47864;52.526;19.672;2023-06-10T00:42:16;154026.06;;;20.06;53.55
61908;BME280;47864;52.526;19.672;2023-06-10T00:44:18;154023.50;;;20.05;53.71
61908;BME280;47864;52.526;19.672;2023-06-10T00:46:21;154024.78;;;20.05;53.85
61908;BME280;47864;52.526;19.672;2023-06-10T00:48:22;154046.41;;;20.14;53.79
61908;BME280;47864;52.526;19.672;2023-06-10T00:50:24;154023.50;;;20.05;53.76
61908;BME280;47864;52.526;19.672;2023-06-10T00:52:29;154019.69;;;20.03;54.21
61908;BME280;47864;52.526;19.672;2023-06-10T00:54:31;154019.69;;;20.03;54.04
61908;BME280;47864;52.526;19.672;2023-06-10T00:56:33;154009.53;;;19.99;54.75
61908;BME280;47864;52.526;19.672;2023-06-10T00:58:35;153978.97;;;19.87;54.90
61908;BME280;47864;52.526;19.672;2023-06-10T01:00:37;153961.16;;;19.80;54.92
61908;BME280;47864;52.526;19.672;2023-06-10T01:02:38;153948.47;;;19.75;55.61
61908;BME280;47864;52.526;19.672;2023-06-10T01:04:40;153965.00;;;19.82;55.46
61908;BME280;47864;52.526;19.672;2023-06-10T01:06:47;153981.53;;;19.88;55.44
61908;BME280;47864;52.526;19.672;2023-06-10T01:11:04;153938.25;;;19.71;56.50
61908;BME280;47864;52.526;19.672;2023-06-10T01:13:12;153924.28;;;19.65;56.77
61908;BME280;47864;52.526;19.672;2023-06-10T01:15:16;153920.47;;;19.64;56.73
61908;BME280;47864;52.526;19.672;2023-06-10T01:17:17;153930.66;;;19.68;56.66
61908;BME280;47864;52.526;19.672;2023-06-10T01:19:19;153874.59;;;19.46;57.32
61908;BME280;47864;52.526;19.672;2023-06-10T01:21:22;153909.03;;;19.59;57.37
61908;BME280;47864;52.526;19.672;2023-06-10T01:23:24;153875.88;;;19.46;57.61
61908;BME280;47864;52.526;19.672;2023-06-10T01:25:27;153887.41;;;19.51;57.16
61908;BME280;47864;52.526;19.672;2023-06-10T01:27:33;153861.91;;;19.41;57.83
61908;BME280;47864;52.526;19.672;2023-06-10T01:29:42;153883.56;;;19.49;57.70
61908;BME280;47864;52.526;19.672;2023-06-10T01:32:03;153881.03;;;19.48;57.54
61908;BME280;47864;52.526;19.672;2023-06-10T01:34:17;153832.63;;;19.29;58.37
61908;BME280;47864;52.526;19.672;2023-06-10T01:36:19;153812.28;;;19.21;58.72
61908;BME280;47864;52.526;19.672;2023-06-10T01:38:25;153816.09;;;19.22;59.08
61908;BME280;47864;52.526;19.672;2023-06-10T01:40:28;153839.00;;;19.31;58.79
61908;BME280;47864;52.526;19.672;2023-06-10T01:42:31;153811.00;;;19.20;59.33
61908;BME280;47864;52.526;19.672;2023-06-10T01:44:33;153855.53;;;19.38;58.88
61908;BME280;47864;52.526;19.672;2023-06-10T01:46:34;153793.22;;;19.13;59.88
61908;BME280;47864;52.526;19.672;2023-06-10T01:48:37;153803.41;;;19.17;60.17
61908;BME280;47864;52.526;19.672;2023-06-10T01:50:39;153762.72;;;19.01;60.73
61908;BME280;47864;52.526;19.672;2023-06-10T01:52:41;153761.44;;;19.00;60.87
61908;BME280;47864;52.526;19.672;2023-06-10T01:54:42;153804.69;;;19.18;60.46
61908;BME280;47864;52.526;19.672;2023-06-10T01:56:44;153733.47;;;18.89;61.37
61908;BME280;47864;52.526;19.672;2023-06-10T01:58:46;153704.19;;;18.78;62.08
61908;BME280;47864;52.526;19.672;2023-06-10T02:00:47;153700.41;;;18.76;62.56
61908;BME280;47864;52.526;19.672;2023-06-10T02:02:49;153677.53;;;18.67;62.99
61908;BME280;47864;52.526;19.672;2023-06-10T02:04:51;153671.16;;;18.65;62.91
61908;BME280;47864;52.526;19.672;2023-06-10T02:06:52;153685.13;;;18.70;63.11
61908;BME280;47864;52.526;19.672;2023-06-10T02:08:54;153667.34;;;18.63;63.32
61908;BME280;47864;52.526;19.672;2023-06-10T02:10:55;153727.09;;;18.87;62.87
61908;BME280;47864;52.526;19.672;2023-06-10T02:12:57;153699.16;;;18.76;63.29
61908;BME280;47864;52.526;19.672;2023-06-10T02:14:58;153733.47;;;18.89;63.12
61908;BME280;47864;52.526;19.672;2023-06-10T02:17:00;153690.22;;;18.72;63.25
61908;BME280;47864;52.526;19.672;2023-06-10T02:19:01;153728.34;;;18.87;63.17
61908;BME280;47864;52.526;19.672;2023-06-10T02:21:03;153737.28;;;18.91;63.17
61908;BME280;47864;52.526;19.672;2023-06-10T02:23:04;153688.94;;;18.72;63.63
61908;BME280;47864;52.526;19.672;2023-06-10T02:25:06;153727.09;;;18.87;62.93
61908;BME280;47864;52.526;19.672;2023-06-10T02:27:08;153699.16;;;18.76;63.62
61908;BME280;47864;52.526;19.672;2023-06-10T02:29:10;153682.63;;;18.69;63.92
61908;BME280;47864;52.526;19.672;2023-06-10T02:31:13;153710.56;;;18.80;63.73
61908;BME280;47864;52.526;19.672;2023-06-10T02:33:15;153765.28;;;19.02;63.67
61908;BME280;47864;52.526;19.672;2023-06-10T02:35:17;153723.31;;;18.85;63.76
61908;BME280;47864;52.526;19.672;2023-06-10T02:37:18;153733.47;;;18.89;63.87
61908;BME280;47864;52.526;19.672;2023-06-10T02:39:21;153716.94;;;18.83;65.31
61908;BME280;47864;52.526;19.672;2023-06-10T02:41:23;153723.31;;;18.85;64.70
61908;BME280;47864;52.526;19.672;2023-06-10T02:43:24;153724.59;;;18.86;64.40
61908;BME280;47864;52.526;19.672;2023-06-10T02:45:26;153638.06;;;18.51;64.91
61908;BME280;47864;52.526;19.672;2023-06-10T02:47:27;153612.66;;;18.41;65.73
61908;BME280;47864;52.526;19.672;2023-06-10T02:49:29;153649.50;;;18.56;65.51
61908;BME280;47864;52.526;19.672;2023-06-10T02:51:30;153672.44;;;18.65;65.10
61908;BME280;47864;52.526;19.672;2023-06-10T02:53:32;153659.75;;;18.60;65.31
61908;BME280;47864;52.526;19.672;2023-06-10T02:55:33;153643.13;;;18.53;65.36
61908;BME280;47864;52.526;19.672;2023-06-10T02:57:35;153658.47;;;18.59;65.45
61908;BME280;47864;52.526;19.672;2023-06-10T02:59:36;153636.81;;;18.51;65.57
61908;BME280;47864;52.526;19.672;2023-06-10T03:01:38;153676.25;;;18.67;65.79
61908;BME280;47864;52.526;19.672;2023-06-10T03:03:40;153643.13;;;18.53;65.58
61908;BME280;47864;52.526;19.672;2023-06-10T03:05:43;153678.81;;;18.68;65.45
61908;BME280;47864;52.526;19.672;2023-06-10T03:07:44;153655.91;;;18.58;66.10
61908;BME280;47864;52.526;19.672;2023-06-10T03:09:46;153701.69;;;18.77;65.69
61908;BME280;47864;52.526;19.672;2023-06-10T03:11:48;153674.97;;;18.66;66.22
61908;BME280;47864;52.526;19.672;2023-06-10T03:13:49;153661.00;;;18.60;66.52
61908;BME280;47864;52.526;19.672;2023-06-10T03:15:51;153658.47;;;18.59;67.28
61908;BME280;47864;52.526;19.672;2023-06-10T03:17:52;153650.81;;;18.56;67.07
61908;BME280;47864;52.526;19.672;2023-06-10T03:19:54;153554.19;;;18.18;67.74
61908;BME280;47864;52.526;19.672;2023-06-10T03:22:10;153638.06;;;18.51;67.08
61908;BME280;47864;52.526;19.672;2023-06-10T03:24:11;153622.78;;;18.45;67.22
61908;BME280;47864;52.526;19.672;2023-06-10T03:26:13;153634.25;;;18.50;67.16
61908;BME280;47864;52.526;19.672;2023-06-10T03:28:15;153640.63;;;18.52;67.67
61908;BME280;47864;52.526;19.672;2023-06-10T03:30:16;153663.50;;;18.61;67.18
61908;BME280;47864;52.526;19.672;2023-06-10T03:32:18;153676.25;;;18.67;67.36
61908;BME280;47864;52.526;19.672;2023-06-10T03:34:19;153627.88;;;18.47;67.85
61908;BME280;47864;52.526;19.672;2023-06-10T03:36:21;153662.28;;;18.61;69.64
61908;BME280;47864;52.526;19.672;2023-06-10T03:38:22;153668.63;;;18.63;68.22
61908;BME280;47864;52.526;19.672;2023-06-10T03:40:24;153671.16;;;18.65;67.99
61908;BME280;47864;52.526;19.672;2023-06-10T03:42:25;153677.53;;;18.67;67.50
61908;BME280;47864;52.526;19.672;2023-06-10T03:44:27;153662.28;;;18.61;69.17
61908;BME280;47864;52.526;19.672;2023-06-10T03:46:28;153652.09;;;18.57;68.37
61908;BME280;47864;52.526;19.672;2023-06-10T03:48:30;153683.84;;;18.70;68.86
61908;BME280;47864;52.526;19.672;2023-06-10T03:50:32;153702.97;;;18.77;68.92
61908;BME280;47864;52.526;19.672;2023-06-10T03:52:34;153701.69;;;18.77;68.07
61908;BME280;47864;52.526;19.672;2023-06-10T03:54:36;153683.84;;;18.70;68.70
61908;BME280;47864;52.526;19.672;2023-06-10T03:56:38;153688.94;;;18.72;69.06
61908;BME280;47864;52.526;19.672;2023-06-10T03:58:40;153677.53;;;18.67;69.36
61908;BME280;47864;52.526;19.672;2023-06-10T04:00:41;153685.13;;;18.70;69.89
61908;BME280;47864;52.526;19.672;2023-06-10T04:02:43;153713.13;;;18.81;69.22
61908;BME280;47864;52.526;19.672;2023-06-10T04:04:45;153718.22;;;18.83;68.86
61908;BME280;47864;52.526;19.672;2023-06-10T04:06:47;153720.75;;;18.84;69.14
61908;BME280;47864;52.526;19.672;2023-06-10T04:08:49;153627.88;;;18.47;69.76
61908;BME280;47864;52.526;19.672;2023-06-10T04:10:51;153671.16;;;18.65;69.79
61908;BME280;47864;52.526;19.672;2023-06-10T04:12:52;153749.97;;;18.96;68.74
61908;BME280;47864;52.526;19.672;2023-06-10T04:14:54;153752.53;;;18.97;68.41
61908;BME280;47864;52.526;19.672;2023-06-10T04:16:55;153733.47;;;18.89;68.38
61908;BME280;47864;52.526;19.672;2023-06-10T04:18:58;153767.78;;;19.03;68.61
61908;BME280;47864;52.526;19.672;2023-06-10T04:20:59;153790.66;;;19.12;69.93
61908;BME280;47864;52.526;19.672;2023-06-10T04:23:01;153839.00;;;19.31;68.47
61908;BME280;47864;52.526;19.672;2023-06-10T04:25:03;153841.56;;;19.32;68.05
61908;BME280;47864;52.526;19.672;2023-06-10T04:27:05;153785.63;;;19.10;68.19
61908;BME280;47864;52.526;19.672;2023-06-10T04:29:06;153786.84;;;19.11;67.53
61908;BME280;47864;52.526;19.672;2023-06-10T04:31:08;153713.13;;;18.81;69.15
61908;BME280;47864;52.526;19.672;2023-06-10T04:33:09;153757.63;;;18.99;68.53
61908;BME280;47864;52.526;19.672;2023-06-10T04:35:12;153823.75;;;19.25;68.08
61908;BME280;47864;52.526;19.672;2023-06-10T04:37:14;153874.59;;;19.46;66.97
61908;BME280;47864;52.526;19.672;2023-06-10T04:39:15;153884.84;;;19.50;66.92
61908;BME280;47864;52.526;19.672;2023-06-10T04:41:17;153973.88;;;19.85;66.59
61908;BME280;47864;52.526;19.672;2023-06-10T04:43:18;154017.13;;;20.02;65.82
61908;BME280;47864;52.526;19.672;2023-06-10T04:45:20;154041.31;;;20.12;65.07
61908;BME280;47864;52.526;19.672;2023-06-10T04:47:21;154066.78;;;20.22;65.99
61908;BME280;47864;52.526;19.672;2023-06-10T04:49:23;154019.69;;;20.03;65.40
61908;BME280;47864;52.526;19.672;2023-06-10T04:51:24;153995.50;;;19.94;64.71
61908;BME280;47864;52.526;19.672;2023-06-10T04:53:26;154075.72;;;20.26;64.36
61908;BME280;47864;52.526;19.672;2023-06-10T04:55:28;154032.44;;;20.08;64.26
61908;BME280;47864;52.526;19.672;2023-06-10T04:57:29;154062.94;;;20.21;65.00
61908;BME280;47864;52.526;19.672;2023-06-10T04:59:31;154108.81;;;20.39;64.59
61908;BME280;47864;52.526;19.672;2023-06-10T05:01:34;154169.91;;;20.63;62.94
61908;BME280;47864;52.526;19.672;2023-06-10T05:03:35;154171.19;;;20.64;62.06
61908;BME280;47864;52.526;19.672;2023-06-10T05:05:37;154167.38;;;20.62;61.98
61908;BME280;47864;52.526;19.672;2023-06-10T05:07:39;154178.84;;;20.67;62.29
61908;BME280;47864;52.526;19.672;2023-06-10T05:09:40;154219.59;;;20.83;63.36
61908;BME280;47864;52.526;19.672;2023-06-10T05:11:42;154182.63;;;20.68;62.43
61908;BME280;47864;52.526;19.672;2023-06-10T05:13:43;154255.22;;;20.97;62.87
61908;BME280;47864;52.526;19.672;2023-06-10T05:15:45;154276.88;;;21.06;61.00
61908;BME280;47864;52.526;19.672;2023-06-10T05:17:46;154259.03;;;20.99;61.89
61908;BME280;47864;52.526;19.672;2023-06-10T05:19:48;154261.59;;;21.00;60.75
61908;BME280;47864;52.526;19.672;2023-06-10T05:21:50;154257.78;;;20.98;62.59
61908;BME280;47864;52.526;19.672;2023-06-10T05:23:51;154288.31;;;21.10;60.86
61908;BME280;47864;52.526;19.672;2023-06-10T05:25:54;154395.31;;;21.53;60.79
61908;BME280;47864;52.526;19.672;2023-06-10T05:27:55;154405.53;;;21.57;59.19
61908;BME280;47864;52.526;19.672;2023-06-10T05:29:57;154452.63;;;21.76;58.57
61908;BME280;47864;52.526;19.672;2023-06-10T05:31:58;154416.97;;;21.61;57.09
61908;BME280;47864;52.526;19.672;2023-06-10T05:34:00;154446.31;;;21.73;58.09
61908;BME280;47864;52.526;19.672;2023-06-10T05:36:02;154334.19;;;21.29;58.42
61908;BME280;47864;52.526;19.672;2023-06-10T05:38:04;154397.88;;;21.54;60.58
61908;BME280;47864;52.526;19.672;2023-06-10T05:40:06;154455.19;;;21.77;58.47
61908;BME280;47864;52.526;19.672;2023-06-10T05:42:08;154411.88;;;21.59;58.16
61908;BME280;47864;52.526;19.672;2023-06-10T05:44:10;154490.84;;;21.91;58.68
61908;BME280;47864;52.526;19.672;2023-06-10T05:46:14;154525.31;;;22.05;57.44
61908;BME280;47864;52.526;19.672;2023-06-10T05:48:16;154504.91;;;21.96;57.06
61908;BME280;47864;52.526;19.672;2023-06-10T05:50:17;154526.59;;;22.05;56.68
61908;BME280;47864;52.526;19.672;2023-06-10T05:52:19;154501.06;;;21.95;56.36
61908;BME280;47864;52.526;19.672;2023-06-10T05:54:20;154540.59;;;22.11;56.32
61908;BME280;47864;52.526;19.672;2023-06-10T05:56:22;154531.72;;;22.07;55.86
61908;BME280;47864;52.526;19.672;2023-06-10T05:58:24;154470.47;;;21.83;55.75
61908;BME280;47864;52.526;19.672;2023-06-10T06:00:25;154512.56;;;21.99;56.03
61908;BME280;47864;52.526;19.672;2023-06-10T06:02:27;154526.59;;;22.05;55.55
61908;BME280;47864;52.526;19.672;2023-06-10T06:04:29;154601.75;;;22.35;55.53
61908;BME280;47864;52.526;19.672;2023-06-10T06:06:30;154582.66;;;22.27;55.49
61908;BME280;47864;52.526;19.672;2023-06-10T06:08:32;154660.38;;;22.58;53.75
61908;BME280;47864;52.526;19.672;2023-06-10T06:10:34;154623.44;;;22.44;53.95
61908;BME280;47864;52.526;19.672;2023-06-10T06:12:35;154590.31;;;22.30;54.43
61908;BME280;47864;52.526;19.672;2023-06-10T06:14:38;154571.19;;;22.23;55.04
61908;BME280;47864;52.526;19.672;2023-06-10T06:16:39;154549.53;;;22.14;54.59
61908;BME280;47864;52.526;19.672;2023-06-10T06:18:41;154687.16;;;22.69;54.28
61908;BME280;47864;52.526;19.672;2023-06-10T06:20:42;154846.53;;;23.32;54.05
61908;BME280;47864;52.526;19.672;2023-06-10T06:22:44;154870.78;;;23.42;51.90
61908;BME280;47864;52.526;19.672;2023-06-10T06:24:46;154865.66;;;23.40;51.50
61908;BME280;47864;52.526;19.672;2023-06-10T06:26:48;154909.06;;;23.57;49.78
61908;BME280;47864;52.526;19.672;2023-06-10T06:28:49;154923.13;;;23.63;49.40
61908;BME280;47864;52.526;19.672;2023-06-10T06:30:51;154958.84;;;23.77;47.90
61908;BME280;47864;52.526;19.672;2023-06-10T06:32:53;155108.13;;;24.36;47.01
61908;BME280;47864;52.526;19.672;2023-06-10T06:34:54;155161.72;;;24.57;46.66
61908;BME280;47864;52.526;19.672;2023-06-10T06:36:56;155258.72;;;24.96;44.71
61908;BME280;47864;52.526;19.672;2023-06-10T06:38:57;155381.31;;;25.45;43.97
61908;BME280;47864;52.526;19.672;2023-06-10T06:40:59;155552.44;;;26.12;42.44
61908;BME280;47864;52.526;19.672;2023-06-10T06:43:00;155546.09;;;26.10;42.38
61908;BME280;47864;52.526;19.672;2023-06-10T06:45:02;155498.81;;;25.91;41.58
61908;BME280;47864;52.526;19.672;2023-06-10T06:47:04;155654.69;;;26.53;41.36
61908;BME280;47864;52.526;19.672;2023-06-10T06:49:06;155663.66;;;26.57;41.03
61908;BME280;47864;52.526;19.672;2023-06-10T06:51:07;155813.19;;;27.16;41.12
61908;BME280;47864;52.526;19.672;2023-06-10T06:53:09;155838.78;;;27.26;38.58
61908;BME280;47864;52.526;19.672;2023-06-10T06:55:11;155873.25;;;27.40;38.66
61908;BME280;47864;52.526;19.672;2023-06-10T06:57:13;155884.75;;;27.44;38.34
61908;BME280;47864;52.526;19.672;2023-06-10T06:59:14;155938.50;;;27.66;37.78
61908;BME280;47864;52.526;19.672;2023-06-10T07:01:16;155916.78;;;27.57;38.28
61908;BME280;47864;52.526;19.672;2023-06-10T07:03:18;156033.09;;;28.03;37.68
61908;BME280;47864;52.526;19.672;2023-06-10T07:05:19;156091.97;;;28.26;36.48
61908;BME280;47864;52.526;19.672;2023-06-10T07:07:21;155978.13;;;27.81;36.72
61908;BME280;47864;52.526;19.672;2023-06-10T07:09:23;155869.41;;;27.38;35.27
61908;BME280;47864;52.526;19.672;2023-06-10T07:11:25;155920.63;;;27.58;36.11
61908;BME280;47864;52.526;19.672;2023-06-10T07:13:26;155969.16;;;27.78;36.59
61908;BME280;47864;52.526;19.672;2023-06-10T07:15:28;156104.78;;;28.31;36.36
61908;BME280;47864;52.526;19.672;2023-06-10T07:17:30;156107.34;;;28.32;35.34
61908;BME280;47864;52.526;19.672;2023-06-10T07:19:31;155909.09;;;27.54;37.07
61908;BME280;47864;52.526;19.672;2023-06-10T07:21:33;155939.78;;;27.66;38.02
61908;BME280;47864;52.526;19.672;2023-06-10T07:23:35;156084.31;;;28.23;36.77
61908;BME280;47864;52.526;19.672;2023-06-10T07:25:37;156177.66;;;28.60;36.87
61908;BME280;47864;52.526;19.672;2023-06-10T07:27:38;156093.25;;;28.27;35.79
61908;BME280;47864;52.526;19.672;2023-06-10T07:29:40;156062.53;;;28.15;37.31
61908;BME280;47864;52.526;19.672;2023-06-10T07:31:41;155915.50;;;27.56;36.36
61908;BME280;47864;52.526;19.672;2023-06-10T07:33:43;155893.72;;;27.48;37.47
61908;BME280;47864;52.526;19.672;2023-06-10T07:35:45;155813.19;;;27.16;36.98
61908;BME280;47864;52.526;19.672;2023-06-10T07:37:46;155714.72;;;26.77;38.48
61908;BME280;47864;52.526;19.672;2023-06-10T07:39:48;155728.81;;;26.82;38.61
61908;BME280;47864;52.526;19.672;2023-06-10T07:41:50;155915.50;;;27.56;36.40
61908;BME280;47864;52.526;19.672;2023-06-10T07:43:53;155990.91;;;27.86;36.94
61908;BME280;47864;52.526;19.672;2023-06-10T07:45:55;156112.41;;;28.34;36.55
61908;BME280;47864;52.526;19.672;2023-06-10T07:47:56;156030.53;;;28.02;35.46
61908;BME280;47864;52.526;19.672;2023-06-10T07:49:58;156164.88;;;28.55;34.31
61908;BME280;47864;52.526;19.672;2023-06-10T07:51:59;156221.19;;;28.77;33.40
61908;BME280;47864;52.526;19.672;2023-06-10T07:54:01;156132.88;;;28.43;33.53
61908;BME280;47864;52.526;19.672;2023-06-10T07:56:03;156237.81;;;28.84;34.82
61908;BME280;47864;52.526;19.672;2023-06-10T07:58:04;156244.22;;;28.87;34.75
61908;BME280;47864;52.526;19.672;2023-06-10T08:00:06;156236.53;;;28.84;33.64
61908;BME280;47864;52.526;19.672;2023-06-10T08:02:08;156207.09;;;28.72;34.89
61908;BME280;47864;52.526;19.672;2023-06-10T08:04:09;156118.81;;;28.37;33.93
61908;BME280;47864;52.526;19.672;2023-06-10T08:06:11;156155.91;;;28.52;35.04
61908;BME280;47864;52.526;19.672;2023-06-10T08:08:13;156340.16;;;29.25;34.38
61908;BME280;47864;52.526;19.672;2023-06-10T08:10:14;156076.63;;;28.20;33.13
61908;BME280;47864;52.526;19.672;2023-06-10T08:12:16;155937.22;;;27.65;34.74
61908;BME280;47864;52.526;19.672;2023-06-10T08:14:17;156114.97;;;28.35;34.94
61908;BME280;47864;52.526;19.672;2023-06-10T08:16:19;156150.78;;;28.50;33.72
61908;BME280;47864;52.526;19.672;2023-06-10T08:18:21;156253.19;;;28.90;33.05
61908;BME280;47864;52.526;19.672;2023-06-10T08:20:22;156192.97;;;28.66;32.11
61908;BME280;47864;52.526;19.672;2023-06-10T08:22:24;156388.84;;;29.44;31.99
61908;BME280;47864;52.526;19.672;2023-06-10T08:24:26;156329.94;;;29.21;32.50
61908;BME280;47864;52.526;19.672;2023-06-10T08:26:28;156405.47;;;29.50;32.40
61908;BME280;47864;52.526;19.672;2023-06-10T08:28:30;156408.03;;;29.51;32.66
61908;BME280;47864;52.526;19.672;2023-06-10T08:30:31;156286.44;;;29.03;31.54
61908;BME280;47864;52.526;19.672;2023-06-10T08:32:33;156305.63;;;29.11;31.59
61908;BME280;47864;52.526;19.672;2023-06-10T08:34:34;156150.78;;;28.50;32.19
61908;BME280;47864;52.526;19.672;2023-06-10T08:36:36;155980.69;;;27.82;32.73
61908;BME280;47864;52.526;19.672;2023-06-10T08:38:38;155946.16;;;27.69;34.45
61908;BME280;47864;52.526;19.672;2023-06-10T08:40:40;155994.75;;;27.88;34.18
61908;BME280;47864;52.526;19.672;2023-06-10T08:43:00;155951.28;;;27.71;35.46
61908;BME280;47864;52.526;19.672;2023-06-10T08:45:02;156051.00;;;28.10;35.04
61908;BME280;47864;52.526;19.672;2023-06-10T08:47:14;155976.84;;;27.81;34.84
61908;BME280;47864;52.526;19.672;2023-06-10T08:49:18;155966.59;;;27.77;35.23
61908;BME280;47864;52.526;19.672;2023-06-10T08:51:20;155790.19;;;27.07;34.93
61908;BME280;47864;52.526;19.672;2023-06-10T08:53:24;155827.25;;;27.21;34.88
61908;BME280;47864;52.526;19.672;2023-06-10T08:55:31;155799.09;;;27.10;35.74
61908;BME280;47864;52.526;19.672;2023-06-10T08:57:33;155673.84;;;26.61;36.10
61908;BME280;47864;52.526;19.672;2023-06-10T08:59:36;155691.75;;;26.68;35.02
61908;BME280;47864;52.526;19.672;2023-06-10T09:01:38;155860.44;;;27.35;35.03
61908;BME280;47864;52.526;19.672;2023-06-10T09:03:41;155882.19;;;27.43;35.71
61908;BME280;47864;52.526;19.672;2023-06-10T09:05:43;155898.84;;;27.50;35.94
61908;BME280;47864;52.526;19.672;2023-06-10T09:07:46;156045.91;;;28.08;33.93
61908;BME280;47864;52.526;19.672;2023-06-10T09:09:49;155957.69;;;27.73;33.71
61908;BME280;47864;52.526;19.672;2023-06-10T09:11:50;155974.28;;;27.80;32.93
61908;BME280;47864;52.526;19.672;2023-06-10T09:13:52;156020.31;;;27.98;32.56
61908;BME280;47864;52.526;19.672;2023-06-10T09:15:54;156118.81;;;28.37;32.11
61908;BME280;47864;52.526;19.672;2023-06-10T09:17:55;156121.38;;;28.38;31.26
61908;BME280;47864;52.526;19.672;2023-06-10T09:19:57;156045.91;;;28.08;32.75
61908;BME280;47864;52.526;19.672;2023-06-10T09:21:59;155996.03;;;27.88;34.00
61908;BME280;47864;52.526;19.672;2023-06-10T09:24:00;155946.16;;;27.69;33.25
61908;BME280;47864;52.526;19.672;2023-06-10T09:26:02;155808.06;;;27.14;32.77
61908;BME280;47864;52.526;19.672;2023-06-10T09:28:04;155701.97;;;26.72;33.78
61908;BME280;47864;52.526;19.672;2023-06-10T09:30:06;155621.50;;;26.40;34.19
61908;BME280;47864;52.526;19.672;2023-06-10T09:32:09;155685.38;;;26.65;34.61
61908;BME280;47864;52.526;19.672;2023-06-10T09:34:13;155822.13;;;27.19;33.69
61908;BME280;47864;52.526;19.672;2023-06-10T09:36:22;155785.06;;;27.05;31.96
61908;BME280;47864;52.526;19.672;2023-06-10T09:38:30;155602.31;;;26.32;33.24
61908;BME280;47864;52.526;19.672;2023-06-10T09:40:31;155537.13;;;26.06;34.11
61908;BME280;47864;52.526;19.672;2023-06-10T09:42:34;155517.97;;;25.99;34.04
61908;BME280;47864;52.526;19.672;2023-06-10T09:44:35;155701.97;;;26.72;34.17
61908;BME280;47864;52.526;19.672;2023-06-10T09:46:37;155723.69;;;26.80;34.20
61908;BME280;47864;52.526;19.672;2023-06-10T09:48:42;155767.19;;;26.98;34.16
61908;BME280;47864;52.526;19.672;2023-06-10T09:50:45;155879.66;;;27.42;32.69
61908;BME280;47864;52.526;19.672;2023-06-10T09:52:47;155708.38;;;26.74;30.88
61908;BME280;47864;52.526;19.672;2023-06-10T09:54:49;155716.00;;;26.77;30.74
61908;BME280;47864;52.526;19.672;2023-06-10T09:56:52;155745.41;;;26.89;30.19
61908;BME280;47864;52.526;19.672;2023-06-10T09:58:53;155701.97;;;26.72;30.70
61908;BME280;47864;52.526;19.672;2023-06-10T10:00:55;155685.38;;;26.65;31.17
61908;BME280;47864;52.526;19.672;2023-06-10T10:02:56;155756.94;;;26.94;31.47
61908;BME280;47864;52.526;19.672;2023-06-10T10:05:04;155776.16;;;27.01;31.94
61908;BME280;47864;52.526;19.672;2023-06-10T10:07:06;155639.38;;;26.47;31.72
61908;BME280;47864;52.526;19.672;2023-06-10T10:09:08;155704.53;;;26.73;32.35
61908;BME280;47864;52.526;19.672;2023-06-10T10:11:10;155799.09;;;27.10;31.53
61908;BME280;47864;52.526;19.672;2023-06-10T10:13:12;155817.03;;;27.17;31.18
61908;BME280;47864;52.526;19.672;2023-06-10T10:15:16;155698.13;;;26.70;31.04
61908;BME280;47864;52.526;19.672;2023-06-10T10:17:19;155723.69;;;26.80;31.83
61908;BME280;47864;52.526;19.672;2023-06-10T10:19:28;155809.34;;;27.14;30.87
61908;BME280;47864;52.526;19.672;2023-06-10T10:21:35;155836.22;;;27.25;31.12
61908;BME280;47864;52.526;19.672;2023-06-10T10:23:51;155787.63;;;27.06;30.92
61908;BME280;47864;52.526;19.672;2023-06-10T10:25:54;155663.66;;;26.57;31.41
61908;BME280;47864;52.526;19.672;2023-06-10T10:28:11;155654.69;;;26.53;31.07
61908;BME280;47864;52.526;19.672;2023-06-10T10:30:14;155832.38;;;27.23;31.45
61908;BME280;47864;52.526;19.672;2023-06-10T10:32:16;155946.16;;;27.69;31.93
61908;BME280;47864;52.526;19.672;2023-06-10T10:34:21;155866.84;;;27.37;30.64